Time;durP1;ratioP1;P1;durP2;ratioP2;P2;SDS_P1;SDS_P2;PMS_P1;PMS_P2;Temp;Humidity;BMP_temperature;BMP_pressure;BME280_temperature;BME280_humidity;BME280_pressure;Samples;Min_cycle;Max_cycle;Signal;HPM_P1;HPM_P2
2023/12/08 00:01:55;;;;;;;8.55;6.55;;;5.70;96.00;;;;;;4970699;28;21023;-26
2023/12/08 00:04:27;;;;;;;9.80;6.60;;;5.70;96.00;;;;;;5000647;28;20225;-27
2023/12/08 00:06:53;;;;;;;6.93;6.22;;;5.70;96.00;;;;;;4961752;28;20534;-27
2023/12/08 00:09:19;;;;;;;6.38;5.47;;;5.60;96.10;;;;;;5001940;28;20217;-28
2023/12/08 00:11:47;;;;;;;8.03;7.10;;;5.60;96.10;;;;;;5001634;28;20182;-26
2023/12/08 00:14:16;;;;;;;8.20;5.65;;;5.70;96.20;;;;;;4983978;28;20480;-25
2023/12/08 00:16:45;;;;;;;8.50;7.30;;;5.70;96.30;;;;;;4996291;28;20284;-26
2023/12/08 00:19:11;;;;;;;6.65;6.00;;;5.70;96.20;;;;;;5001051;28;20216;-26
2023/12/08 00:21:37;;;;;;;6.93;6.22;;;5.70;96.10;;;;;;4995497;28;20205;-28
2023/12/08 00:24:04;;;;;;;9.07;7.10;;;5.70;96.10;;;;;;4978028;28;20233;-26
2023/12/08 00:26:32;;;;;;;8.25;6.13;;;5.70;96.10;;;;;;4981250;28;20190;-27
2023/12/08 00:28:58;;;;;;;6.80;6.10;;;5.70;96.10;;;;;;4983734;28;20213;-26
2023/12/08 00:31:39;;;;;;;8.25;6.32;;;5.70;96.10;;;;;;4978002;28;20487;-25
2023/12/08 00:34:07;;;;;;;7.53;6.22;;;5.70;96.10;;;;;;4981382;28;20231;-27
2023/12/08 00:36:34;;;;;;;8.00;6.47;;;5.70;96.10;;;;;;4978090;28;20666;-25
2023/12/08 00:39:02;;;;;;;8.38;6.40;;;5.70;96.10;;;;;;4996930;28;20747;-26
2023/12/08 00:41:31;;;;;;;7.87;6.17;;;5.70;96.20;;;;;;4948434;28;20228;-26
2023/12/08 00:43:57;;;;;;;8.57;7.10;;;5.70;96.10;;;;;;4980701;28;20453;-26
2023/12/08 00:46:23;;;;;;;7.90;6.80;;;5.70;96.20;;;;;;4984505;28;20790;-27
2023/12/08 00:48:49;;;;;;;8.93;6.35;;;5.70;96.20;;;;;;4983410;28;20444;-26
2023/12/08 00:51:16;;;;;;;7.43;5.82;;;5.70;96.20;;;;;;5001836;28;20207;-25
2023/12/08 00:53:45;;;;;;;8.07;5.68;;;5.70;96.20;;;;;;5000614;28;20755;-27
2023/12/08 00:56:11;;;;;;;7.20;6.47;;;5.70;96.20;;;;;;4997934;28;20194;-27
2023/12/08 00:58:37;;;;;;;7.13;6.40;;;5.70;96.10;;;;;;4998636;28;20277;-26
2023/12/08 01:01:04;;;;;;;8.17;6.87;;;5.70;96.10;;;;;;4983331;28;20231;-26
2023/12/08 01:03:30;;;;;;;7.75;6.40;;;5.70;96.10;;;;;;4993347;28;20449;-26
2023/12/08 01:05:57;;;;;;;7.53;6.40;;;5.70;96.10;;;;;;4982987;28;20185;-26
2023/12/08 01:08:23;;;;;;;7.63;6.82;;;5.70;96.10;;;;;;4975030;28;20698;-27
2023/12/08 01:10:49;;;;;;;7.73;6.20;;;5.70;96.10;;;;;;5000021;28;20210;-25
2023/12/08 01:13:15;;;;;;;8.43;6.57;;;5.70;96.10;;;;;;4970423;28;20444;-26
2023/12/08 01:15:41;;;;;;;7.38;6.22;;;5.70;96.10;;;;;;4993969;28;20202;-26
2023/12/08 01:18:08;;;;;;;7.33;6.17;;;5.70;96.10;;;;;;4954068;28;20277;-25
2023/12/08 01:20:36;;;;;;;8.30;6.20;;;5.70;96.10;;;;;;4964512;28;20505;-27
2023/12/08 01:23:04;;;;;;;9.17;7.23;;;5.70;96.00;;;;;;4998519;28;21693;-25
2023/12/08 01:25:33;;;;;;;7.18;6.47;;;5.70;96.00;;;;;;4980329;28;20506;-25
2023/12/08 01:27:59;;;;;;;7.67;6.13;;;5.70;95.90;;;;;;4980221;28;20202;-26
2023/12/08 01:30:25;;;;;;;9.50;7.67;;;5.70;96.00;;;;;;5000697;28;20879;-25
2023/12/08 01:32:53;;;;;;;6.78;6.05;;;5.70;96.00;;;;;;4980710;28;20441;-25
2023/12/08 01:35:22;;;;;;;6.90;6.10;;;5.70;96.10;;;;;;4999084;28;21122;-25
2023/12/08 01:37:48;;;;;;;8.75;6.78;;;5.70;96.00;;;;;;5000517;28;20193;-26
2023/12/08 01:40:14;;;;;;;8.90;6.23;;;5.70;96.10;;;;;;4997710;28;20190;-27
2023/12/08 01:42:44;;;;;;;7.60;6.45;;;5.70;96.40;;;;;;4998477;28;20449;-27
2023/12/08 01:45:10;;;;;;;8.32;7.53;;;5.70;96.10;;;;;;4982842;28;20218;-26
2023/12/08 01:47:39;;;;;;;8.30;6.60;;;5.70;96.10;;;;;;4964371;28;20189;-26
2023/12/08 01:50:06;;;;;;;8.20;6.75;;;5.70;96.00;;;;;;4979488;28;20735;-26
2023/12/08 01:52:37;;;;;;;8.00;6.45;;;5.70;96.00;;;;;;4997047;28;20248;-26
2023/12/08 01:55:04;;;;;;;7.00;6.30;;;5.70;95.90;;;;;;4981540;28;20205;-26
2023/12/08 01:57:30;;;;;;;7.60;6.15;;;5.70;95.90;;;;;;4999842;28;20186;-25
2023/12/08 01:59:57;;;;;;;8.90;7.30;;;5.70;95.90;;;;;;4993593;28;20212;-25
2023/12/08 02:02:23;;;;;;;8.37;6.90;;;5.70;95.90;;;;;;4981765;28;20217;-28
2023/12/08 02:04:51;;;;;;;7.00;6.30;;;5.80;96.30;;;;;;4959004;28;20996;-25
2023/12/08 02:07:21;;;;;;;8.68;6.50;;;5.70;95.90;;;;;;4986925;28;20259;-25
2023/12/08 02:09:47;;;;;;;9.20;6.87;;;5.70;95.90;;;;;;4979691;28;20723;-26
2023/12/08 02:12:16;;;;;;;7.45;6.43;;;5.70;96.20;;;;;;4995482;28;20430;-26
2023/12/08 02:14:42;;;;;;;7.30;6.57;;;5.70;95.90;;;;;;4991887;28;20688;-26
2023/12/08 02:17:26;;;;;;;8.48;7.30;;;5.70;95.90;;;;;;4999532;28;20421;-26
2023/12/08 02:19:53;;;;;;;8.60;6.65;;;5.70;95.90;;;;;;4999256;28;20318;-25
2023/12/08 02:22:23;;;;;;;6.93;5.95;;;5.70;95.90;;;;;;4980602;28;20209;-26
2023/12/08 02:24:52;;;;;;;6.85;6.15;;;5.70;95.90;;;;;;4998165;28;20216;-28
2023/12/08 02:27:18;;;;;;;8.73;6.47;;;5.70;95.90;;;;;;4977624;28;20199;-26
2023/12/08 02:29:44;;;;;;;8.23;6.88;;;5.70;96.00;;;;;;4995863;28;20267;-26
2023/12/08 02:32:26;;;;;;;8.40;7.20;;;5.70;96.00;;;;;;4988714;28;20233;-25
2023/12/08 02:34:52;;;;;;;11.43;7.40;;;5.70;96.00;;;;;;4988944;28;20241;-32
2023/12/08 02:37:20;;;;;;;10.10;7.60;;;5.70;96.10;;;;;;4970808;28;20240;-27
2023/12/08 02:39:48;;;;;;;9.55;6.97;;;5.70;96.10;;;;;;4979015;28;20197;-26
2023/12/08 02:42:17;;;;;;;9.13;7.40;;;5.70;96.30;;;;;;4978131;28;20273;-25
2023/12/08 02:44:43;;;;;;;9.75;6.90;;;5.80;96.40;;;;;;4973482;28;20309;-26
2023/12/08 02:47:11;;;;;;;11.20;7.70;;;5.70;96.40;;;;;;4992931;28;20260;-28
2023/12/08 02:49:37;;;;;;;9.48;7.15;;;5.70;96.50;;;;;;4996351;28;20212;-26
2023/12/08 02:52:04;;;;;;;9.70;7.22;;;5.70;96.60;;;;;;4998014;28;20248;-25
2023/12/08 02:54:30;;;;;;;9.98;7.63;;;5.80;96.70;;;;;;4997867;28;20217;-26
2023/12/08 02:56:56;;;;;;;9.23;7.15;;;5.70;96.60;;;;;;4981413;28;20198;-26
2023/12/08 02:59:24;;;;;;;9.43;7.23;;;5.80;96.70;;;;;;4980006;28;20311;-25
2023/12/08 03:01:52;;;;;;;9.15;7.40;;;5.70;96.70;;;;;;4978907;28;20978;-26
2023/12/08 03:04:18;;;;;;;11.00;8.48;;;5.70;96.70;;;;;;4958501;28;20229;-26
2023/12/08 03:06:45;;;;;;;10.03;7.20;;;5.70;96.80;;;;;;4956046;28;20649;-25
2023/12/08 03:09:10;;;;;;;9.13;7.70;;;5.80;96.90;;;;;;4996970;28;20464;-26
2023/12/08 03:11:37;;;;;;;7.60;6.70;;;5.70;96.90;;;;;;4974468;28;20762;-25
2023/12/08 03:14:03;;;;;;;8.30;7.22;;;5.70;97.00;;;;;;4995218;28;20818;-27
2023/12/08 03:16:31;;;;;;;12.57;8.30;;;5.70;97.00;;;;;;4998347;28;20210;-26
2023/12/08 03:18:57;;;;;;;9.87;7.97;;;5.80;97.10;;;;;;4970900;28;20603;-26
2023/12/08 03:21:27;;;;;;;9.98;7.38;;;5.70;97.00;;;;;;4975425;28;20492;-25
2023/12/08 03:23:53;;;;;;;10.38;7.88;;;5.70;97.10;;;;;;4984410;28;20633;-26
2023/12/08 03:26:19;;;;;;;8.82;7.32;;;5.80;97.20;;;;;;4994204;28;20276;-25
2023/12/08 03:28:46;;;;;;;9.20;7.32;;;5.70;97.10;;;;;;4998140;28;20204;-26
2023/12/08 03:31:27;;;;;;;10.80;8.43;;;5.70;97.20;;;;;;4996348;28;20301;-26
2023/12/08 03:33:54;;;;;;;9.52;7.72;;;5.70;97.20;;;;;;4966566;28;20221;-25
2023/12/08 03:36:24;;;;;;;8.43;6.88;;;5.80;97.20;;;;;;5000247;28;20972;-26
2023/12/08 03:38:50;;;;;;;11.23;7.45;;;5.80;97.20;;;;;;5002710;28;20292;-25
2023/12/08 03:41:16;;;;;;;11.25;8.50;;;5.80;97.20;;;;;;4998186;28;20962;-26
2023/12/08 03:43:42;;;;;;;9.48;8.00;;;5.80;97.20;;;;;;4983064;28;20324;-26
2023/12/08 03:46:08;;;;;;;10.65;7.70;;;5.80;97.20;;;;;;5001117;28;20193;-28
2023/12/08 03:48:36;;;;;;;9.43;6.95;;;5.70;97.20;;;;;;4996641;28;20186;-26
2023/12/08 03:51:05;;;;;;;10.27;7.90;;;5.70;97.20;;;;;;4985013;28;21037;-27
2023/12/08 03:53:32;;;;;;;10.05;7.47;;;5.70;97.30;;;;;;4973743;28;20228;-27
2023/12/08 03:56:00;;;;;;;9.90;7.82;;;5.70;97.20;;;;;;4983356;28;21194;-27
2023/12/08 03:58:28;;;;;;;9.98;7.88;;;5.70;97.20;;;;;;4992828;28;20191;-27
2023/12/08 04:00:54;;;;;;;9.75;7.65;;;5.70;97.20;;;;;;5000328;28;20201;-26
2023/12/08 04:03:20;;;;;;;9.77;6.75;;;5.70;97.20;;;;;;4982701;28;20407;-25
2023/12/08 04:05:46;;;;;;;10.30;8.05;;;5.70;97.30;;;;;;5000375;28;20880;-25
2023/12/08 04:08:12;;;;;;;8.40;7.40;;;5.70;97.20;;;;;;5000906;28;20289;-27
2023/12/08 04:10:40;;;;;;;8.90;7.38;;;5.70;97.20;;;;;;5000749;28;20463;-27
2023/12/08 04:13:06;;;;;;;10.32;7.43;;;5.70;97.20;;;;;;4967709;28;20202;-28
2023/12/08 04:15:35;;;;;;;10.35;8.23;;;5.70;97.20;;;;;;4996082;28;20201;-25
2023/12/08 04:18:04;;;;;;;11.63;8.40;;;5.70;97.20;;;;;;4994626;28;20780;-27
2023/12/08 04:20:31;;;;;;;11.65;8.60;;;5.70;97.20;;;;;;5003314;28;20225;-26
2023/12/08 04:23:05;;;;;;;10.68;7.82;;;5.70;97.20;;;;;;5000548;28;20213;-27
2023/12/08 04:25:31;;;;;;;10.52;8.20;;;5.80;97.20;;;;;;5001986;28;20205;-28
2023/12/08 04:27:57;;;;;;;9.80;7.50;;;5.80;97.20;;;;;;4996498;28;20209;-26
2023/12/08 04:30:25;;;;;;;9.50;8.03;;;5.80;97.30;;;;;;4994739;28;20801;-26
2023/12/08 04:32:51;;;;;;;9.05;7.45;;;5.80;97.30;;;;;;4996168;28;22075;-27
2023/12/08 04:35:17;;;;;;;11.03;7.60;;;5.70;97.30;;;;;;5001834;28;20217;-28
2023/12/08 04:37:44;;;;;;;9.03;7.80;;;5.80;97.30;;;;;;5003548;28;20421;-25
2023/12/08 04:40:10;;;;;;;11.83;7.77;;;5.80;97.30;;;;;;4981591;28;20441;-27
2023/12/08 04:42:38;;;;;;;8.70;7.38;;;5.80;97.40;;;;;;4994278;28;20437;-27
2023/12/08 04:45:05;;;;;;;8.95;7.45;;;5.80;97.50;;;;;;5002614;28;20206;-26
2023/12/08 04:47:32;;;;;;;9.80;8.13;;;5.80;97.50;;;;;;4999238;28;20229;-26
2023/12/08 04:49:59;;;;;;;10.35;7.75;;;5.70;97.60;;;;;;4977192;28;20240;-26
2023/12/08 04:52:27;;;;;;;9.90;7.90;;;5.80;97.80;;;;;;4996813;28;20189;-25
2023/12/08 04:54:53;;;;;;;9.90;8.02;;;5.70;97.70;;;;;;4977836;28;20459;-25
2023/12/08 04:57:25;;;;;;;9.57;7.65;;;5.80;97.80;;;;;;4981833;28;20204;-26
2023/12/08 04:59:54;;;;;;;9.23;8.05;;;5.80;97.90;;;;;;5001590;28;20214;-25
2023/12/08 05:02:20;;;;;;;10.70;8.75;;;5.70;97.90;;;;;;4994723;28;20204;-26
2023/12/08 05:04:46;;;;;;;9.88;6.97;;;5.70;97.90;;;;;;5000548;28;20218;-26
2023/12/08 05:07:13;;;;;;;13.87;8.77;;;5.70;97.90;;;;;;5002661;28;20798;-25
2023/12/08 05:09:42;;;;;;;11.43;8.83;;;5.70;98.00;;;;;;4996156;28;20469;-26
2023/12/08 05:12:11;;;;;;;9.57;7.70;;;5.70;98.00;;;;;;4977617;28;21002;-26
2023/12/08 05:14:37;;;;;;;9.95;7.75;;;5.80;98.10;;;;;;5001000;28;21241;-25
2023/12/08 05:17:04;;;;;;;12.70;8.87;;;5.80;98.10;;;;;;4978845;28;20193;-26
2023/12/08 05:19:31;;;;;;;9.40;7.80;;;5.70;98.10;;;;;;4983669;28;21081;-26
2023/12/08 05:21:56;;;;;;;10.57;8.30;;;5.70;98.50;;;;;;4994430;28;20208;-25
2023/12/08 05:24:23;;;;;;;9.57;8.03;;;5.70;98.20;;;;;;4983212;28;20218;-26
2023/12/08 05:26:51;;;;;;;9.25;8.20;;;5.80;98.30;;;;;;4981859;28;20512;-26
2023/12/08 05:29:17;;;;;;;11.90;8.70;;;5.80;98.30;;;;;;4982161;28;20294;-27
2023/12/08 05:31:43;;;;;;;10.07;8.32;;;5.70;98.30;;;;;;5000880;28;21173;-26
2023/12/08 05:34:09;;;;;;;9.77;7.77;;;5.80;98.30;;;;;;4996151;28;20297;-26
2023/12/08 05:36:35;;;;;;;12.10;8.50;;;5.70;98.30;;;;;;4982073;28;20982;-26
2023/12/08 05:39:02;;;;;;;10.82;8.50;;;5.80;98.30;;;;;;4998009;28;20460;-27
2023/12/08 05:41:28;;;;;;;10.88;8.82;;;5.80;98.40;;;;;;5001236;28;20193;-27
2023/12/08 05:43:56;;;;;;;10.80;8.50;;;5.80;98.30;;;;;;5000035;28;20210;-26
2023/12/08 05:46:22;;;;;;;13.63;9.07;;;5.80;98.40;;;;;;4981490;28;20919;-25
2023/12/08 05:49:13;;;;;;;11.57;8.97;;;5.80;98.40;;;;;;4998875;28;20294;-28
2023/12/08 05:51:44;;;;;;;11.10;8.55;;;5.80;98.40;;;;;;4953515;28;20482;-28
2023/12/08 05:54:12;;;;;;;11.02;8.57;;;5.70;98.40;;;;;;4958631;28;20290;-28
2023/12/08 05:56:39;;;;;;;12.70;9.95;;;5.70;98.50;;;;;;4954044;28;20266;-28
2023/12/08 05:59:05;;;;;;;10.48;9.35;;;5.80;98.50;;;;;;4956629;28;20314;-28
2023/12/08 06:01:36;;;;;;;11.80;9.73;;;5.70;98.50;;;;;;4956751;28;20298;-28
2023/12/08 06:04:03;;;;;;;11.10;8.60;;;5.70;98.50;;;;;;4959482;28;20608;-28
2023/12/08 06:06:31;;;;;;;12.52;9.32;;;5.80;98.60;;;;;;4955702;28;20220;-29
2023/12/08 06:09:00;;;;;;;11.70;9.30;;;5.70;98.60;;;;;;4954493;28;20422;-28
2023/12/08 06:11:29;;;;;;;11.35;8.98;;;5.70;98.50;;;;;;4961893;28;20206;-29
2023/12/08 06:13:54;;;;;;;11.27;8.90;;;5.70;98.60;;;;;;4960058;28;20234;-28
2023/12/08 06:16:23;;;;;;;14.20;9.63;;;5.70;98.60;;;;;;4961597;28;20205;-28
2023/12/08 06:18:55;;;;;;;11.00;8.55;;;5.70;98.60;;;;;;4952915;28;20234;-29
2023/12/08 06:21:23;;;;;;;13.50;9.02;;;5.70;98.60;;;;;;4955392;28;20750;-29
2023/12/08 06:23:51;;;;;;;13.35;10.52;;;5.80;98.60;;;;;;4953278;28;20215;-28
2023/12/08 06:26:17;;;;;;;11.13;8.95;;;5.70;98.60;;;;;;4956052;28;20219;-28
2023/12/08 06:28:44;;;;;;;12.32;9.70;;;5.70;98.60;;;;;;4937483;28;20199;-28
2023/12/08 06:31:10;;;;;;;12.05;9.82;;;5.70;98.60;;;;;;4958938;28;20321;-28
2023/12/08 06:33:35;;;;;;;12.10;9.57;;;5.70;98.60;;;;;;4957469;28;20191;-28
2023/12/08 06:36:04;;;;;;;16.25;10.95;;;5.80;98.70;;;;;;4959770;28;20250;-29
2023/12/08 06:38:30;;;;;;;12.27;10.57;;;5.70;98.70;;;;;;4960568;28;20718;-29
2023/12/08 06:40:56;;;;;;;12.23;9.90;;;5.80;98.80;;;;;;4953569;28;20254;-28
2023/12/08 06:43:22;;;;;;;12.18;9.35;;;5.70;98.70;;;;;;4943124;28;21136;-28
2023/12/08 06:45:48;;;;;;;10.43;9.27;;;5.80;98.80;;;;;;4956733;28;20215;-28
2023/12/08 06:48:14;;;;;;;11.80;9.60;;;5.70;98.70;;;;;;4956959;28;20187;-28
2023/12/08 06:50:40;;;;;;;12.48;9.23;;;5.80;98.80;;;;;;4957332;28;21302;-28
2023/12/08 06:53:07;;;;;;;11.77;9.50;;;5.80;98.80;;;;;;4955974;28;21221;-28
2023/12/08 06:55:33;;;;;;;11.63;9.32;;;5.80;98.80;;;;;;4958476;28;20207;-28
2023/12/08 06:58:00;;;;;;;13.48;10.05;;;5.80;98.80;;;;;;4960995;28;20191;-28
2023/12/08 07:01:05;;;;;;;12.70;9.35;;;5.80;98.80;;;;;;4959244;28;20218;-28
2023/12/08 07:03:33;;;;;;;12.87;9.50;;;5.80;98.90;;;;;;4956282;28;20197;-28
2023/12/08 07:06:02;;;;;;;13.25;10.05;;;5.80;98.90;;;;;;4945339;28;20442;-28
2023/12/08 07:08:29;;;;;;;13.05;9.20;;;5.80;98.90;;;;;;4958798;28;20265;-29
2023/12/08 07:11:00;;;;;;;13.02;10.38;;;5.80;98.90;;;;;;4959061;28;20249;-29
2023/12/08 07:13:30;;;;;;;12.07;9.07;;;5.80;98.90;;;;;;4960044;28;20218;-28
2023/12/08 07:16:01;;;;;;;12.30;9.18;;;5.80;99.00;;;;;;4960639;28;20179;-28
2023/12/08 07:18:27;;;;;;;11.85;8.93;;;5.80;98.90;;;;;;4960711;28;20210;-28
2023/12/08 07:20:53;;;;;;;11.40;9.30;;;5.80;99.00;;;;;;4958094;28;20207;-28
2023/12/08 07:23:19;;;;;;;12.10;9.68;;;5.80;99.00;;;;;;4947759;28;20198;-28
2023/12/08 07:25:46;;;;;;;14.05;9.90;;;5.80;99.00;;;;;;4957979;28;20338;-28
2023/12/08 07:28:12;;;;;;;12.25;8.93;;;5.80;99.00;;;;;;4953895;28;20199;-28
2023/12/08 07:30:38;;;;;;;15.07;9.70;;;5.80;99.00;;;;;;4950828;28;20338;-28
2023/12/08 07:33:08;;;;;;;11.95;10.35;;;5.80;99.00;;;;;;4957831;28;20626;-28
2023/12/08 07:35:36;;;;;;;12.90;10.18;;;5.80;99.00;;;;;;4952053;28;20214;-28
2023/12/08 07:38:05;;;;;;;15.20;11.13;;;5.80;99.00;;;;;;4958976;28;20178;-28
2023/12/08 07:40:33;;;;;;;13.70;10.02;;;5.70;99.00;;;;;;4942843;28;20245;-28
2023/12/08 07:43:00;;;;;;;14.02;10.15;;;5.80;99.00;;;;;;4960096;28;20198;-28
2023/12/08 07:45:33;;;;;;;11.98;9.07;;;5.80;99.10;;;;;;4938884;28;20228;-28
2023/12/08 07:47:59;;;;;;;14.93;10.63;;;5.80;99.10;;;;;;4953139;28;20188;-28
2023/12/08 07:50:27;;;;;;;11.57;10.05;;;5.80;99.10;;;;;;4952724;28;21051;-28
2023/12/08 07:52:53;;;;;;;12.53;8.83;;;5.80;99.10;;;;;;4955394;28;20191;-28
2023/12/08 07:55:19;;;;;;;13.18;9.57;;;5.80;99.10;;;;;;4938995;28;20457;-28
2023/12/08 07:57:46;;;;;;;12.67;10.17;;;5.80;99.00;;;;;;4951508;28;20187;-28
2023/12/08 08:00:12;;;;;;;13.38;10.32;;;5.80;99.00;;;;;;4946333;28;20434;-28
2023/12/08 08:02:39;;;;;;;12.18;9.23;;;5.80;99.10;;;;;;4954288;28;20196;-28
2023/12/08 08:05:05;;;;;;;12.95;9.50;;;5.80;99.10;;;;;;4932556;28;20255;-27
2023/12/08 08:07:32;;;;;;;12.20;9.57;;;5.90;99.10;;;;;;4952244;28;20814;-28
2023/12/08 08:09:58;;;;;;;13.48;9.80;;;5.80;99.10;;;;;;4957349;28;20698;-28
2023/12/08 08:12:24;;;;;;;11.85;9.63;;;5.80;99.10;;;;;;4934690;28;20803;-28
2023/12/08 08:14:53;;;;;;;14.43;10.80;;;5.80;99.10;;;;;;4956561;28;20204;-29
2023/12/08 08:17:19;;;;;;;14.43;9.43;;;5.80;99.10;;;;;;4958623;28;20736;-28
2023/12/08 08:19:49;;;;;;;13.18;9.15;;;5.80;99.10;;;;;;4951508;28;20301;-28
2023/12/08 08:22:16;;;;;;;13.65;9.18;;;5.80;99.10;;;;;;4955793;28;20199;-28
2023/12/08 08:24:45;;;;;;;13.70;9.48;;;5.80;99.10;;;;;;4955264;28;20207;-28
2023/12/08 08:27:11;;;;;;;13.65;10.07;;;5.80;99.10;;;;;;4962125;28;20193;-28
2023/12/08 08:29:37;;;;;;;13.15;9.75;;;5.80;99.10;;;;;;4961758;28;20268;-28
2023/12/08 08:32:03;;;;;;;12.77;9.55;;;5.80;99.10;;;;;;4961628;28;20183;-28
2023/12/08 08:34:32;;;;;;;12.00;9.27;;;5.80;99.10;;;;;;4959022;28;20207;-28
2023/12/08 08:36:58;;;;;;;13.63;9.32;;;5.80;99.50;;;;;;4958762;28;20203;-28
2023/12/08 08:39:27;;;;;;;11.70;8.90;;;5.80;99.10;;;;;;4954912;28;20187;-28
2023/12/08 08:41:56;;;;;;;13.43;9.53;;;5.90;99.20;;;;;;4960419;28;20191;-28
2023/12/08 08:44:22;;;;;;;11.45;9.13;;;5.90;99.20;;;;;;4962121;28;20529;-28
2023/12/08 08:46:53;;;;;;;14.10;10.63;;;5.90;99.30;;;;;;4953531;28;20205;-28
2023/12/08 08:49:22;;;;;;;11.95;9.80;;;5.80;99.20;;;;;;4961112;28;20993;-28
2023/12/08 08:51:48;;;;;;;15.87;10.30;;;5.90;99.30;;;;;;4960764;28;20223;-28
2023/12/08 08:54:15;;;;;;;11.07;9.37;;;5.90;99.30;;;;;;4960764;28;20474;-28
2023/12/08 08:56:42;;;;;;;13.90;9.85;;;5.90;99.30;;;;;;4954029;28;20590;-28
2023/12/08 08:59:08;;;;;;;12.60;9.17;;;5.90;99.30;;;;;;4956201;28;20806;-29
2023/12/08 09:01:38;;;;;;;13.68;10.10;;;5.90;99.30;;;;;;4957476;28;20430;-28
2023/12/08 09:04:08;;;;;;;13.23;9.50;;;5.90;99.30;;;;;;4935706;28;20326;-28
2023/12/08 09:06:35;;;;;;;13.13;9.93;;;5.90;99.30;;;;;;4957827;28;20423;-28
2023/12/08 09:09:04;;;;;;;17.45;10.55;;;5.90;99.30;;;;;;4961829;28;20627;-28
2023/12/08 09:11:33;;;;;;;11.95;9.60;;;5.90;99.30;;;;;;4953932;28;20266;-28
2023/12/08 09:13:59;;;;;;;12.30;9.88;;;5.90;99.40;;;;;;4959218;28;20803;-28
2023/12/08 09:16:25;;;;;;;14.00;10.43;;;5.90;99.30;;;;;;4944770;28;20211;-28
2023/12/08 09:18:51;;;;;;;16.00;9.88;;;5.90;99.40;;;;;;4957862;28;20445;-28
2023/12/08 09:21:18;;;;;;;12.10;9.77;;;5.90;99.40;;;;;;4936090;29;20200;-28
2023/12/08 09:23:44;;;;;;;11.80;9.07;;;5.90;99.40;;;;;;4958116;28;20502;-28
2023/12/08 09:26:13;;;;;;;13.47;8.73;;;5.90;99.40;;;;;;4955470;28;20431;-28
2023/12/08 09:28:39;;;;;;;13.90;9.60;;;5.90;99.40;;;;;;4955048;28;20477;-28
2023/12/08 09:31:05;;;;;;;14.43;10.33;;;5.90;99.40;;;;;;4955278;28;20462;-28
2023/12/08 09:33:31;;;;;;;11.80;8.68;;;5.90;99.50;;;;;;4955464;28;20526;-28
2023/12/08 09:35:58;;;;;;;13.47;9.63;;;5.90;99.50;;;;;;4953416;28;20195;-28
2023/12/08 09:38:24;;;;;;;12.13;8.63;;;5.90;99.40;;;;;;4953211;28;20459;-28
2023/12/08 09:40:50;;;;;;;11.98;8.52;;;5.90;99.50;;;;;;4956610;28;20470;-28
2023/12/08 09:43:28;;;;;;;10.85;8.75;;;5.90;99.50;;;;;;4946318;28;20323;-28
2023/12/08 09:45:55;;;;;;;11.13;9.10;;;5.90;99.50;;;;;;4951323;28;20298;-28
2023/12/08 09:48:23;;;;;;;12.60;9.10;;;5.90;99.50;;;;;;4953166;28;20475;-28
2023/12/08 09:50:51;;;;;;;16.95;10.38;;;5.90;99.50;;;;;;4939398;28;20469;-28
2023/12/08 09:53:20;;;;;;;13.73;10.00;;;5.90;99.50;;;;;;4957807;28;20210;-28
2023/12/08 09:55:49;;;;;;;11.73;9.60;;;5.90;99.50;;;;;;4958201;28;20701;-28
2023/12/08 09:58:17;;;;;;;12.05;9.73;;;5.90;99.60;;;;;;4963561;28;20215;-28
2023/12/08 10:00:48;;;;;;;13.32;9.98;;;5.90;99.60;;;;;;4958998;28;20207;-28
2023/12/08 10:03:15;;;;;;;12.17;10.00;;;5.90;99.60;;;;;;4935671;28;20195;-29
2023/12/08 10:05:41;;;;;;;14.30;10.17;;;5.90;99.50;;;;;;4952716;28;20452;-28
2023/12/08 10:08:10;;;;;;;9.70;8.68;;;5.90;99.60;;;;;;4940858;28;20501;-28
2023/12/08 10:10:37;;;;;;;12.27;9.40;;;5.90;99.60;;;;;;4958295;28;20229;-28
2023/12/08 10:13:04;;;;;;;16.15;9.85;;;6.00;99.70;;;;;;4957282;28;20188;-28
2023/12/08 10:15:31;;;;;;;14.82;9.40;;;6.00;99.70;;;;;;4958313;28;20206;-28
2023/12/08 10:17:57;;;;;;;14.25;9.50;;;6.00;99.70;;;;;;4941546;28;20191;-28
2023/12/08 10:20:23;;;;;;;13.23;9.30;;;6.00;99.80;;;;;;4957351;28;20346;-28
2023/12/08 10:22:54;;;;;;;14.87;10.00;;;6.00;99.80;;;;;;4950887;28;20330;-29
2023/12/08 10:25:22;;;;;;;11.35;9.43;;;6.00;99.90;;;;;;4956949;28;21120;-28
2023/12/08 10:27:53;;;;;;;12.60;9.27;;;6.00;99.90;;;;;;4956802;28;20203;-28
2023/12/08 10:30:21;;;;;;;11.98;9.13;;;6.00;99.90;;;;;;4940840;28;20218;-28
2023/12/08 10:32:47;;;;;;;11.90;9.53;;;6.00;99.90;;;;;;4955737;28;20175;-29
2023/12/08 10:35:14;;;;;;;12.30;9.40;;;6.00;99.90;;;;;;4957504;28;21384;-29
2023/12/08 10:37:42;;;;;;;12.98;10.02;;;6.00;99.70;;;;;;4956296;28;20462;-28
2023/12/08 10:40:12;;;;;;;15.53;9.17;;;6.00;99.70;;;;;;4952589;28;20682;-28
2023/12/08 10:42:38;;;;;;;15.48;9.57;;;6.00;99.60;;;;;;4939040;28;20449;-28
2023/12/08 10:45:13;;;;;;;12.02;9.40;;;6.00;99.60;;;;;;4949047;28;20207;-28
2023/12/08 10:47:43;;;;;;;11.85;9.40;;;6.00;99.70;;;;;;4948616;28;20215;-28
2023/12/08 10:50:10;;;;;;;15.90;9.95;;;6.00;99.70;;;;;;4959169;28;20219;-28
2023/12/08 10:52:39;;;;;;;10.23;8.90;;;6.00;99.70;;;;;;4956556;28;20190;-28
2023/12/08 10:55:10;;;;;;;14.73;10.60;;;6.00;99.80;;;;;;4952881;28;20525;-27
2023/12/08 10:57:39;;;;;;;12.07;8.90;;;6.00;99.90;;;;;;4954712;28;20196;-28
2023/12/08 11:00:17;;;;;;;14.30;10.70;;;6.00;99.90;;;;;;4957720;28;21524;-28
2023/12/08 11:02:57;;;;;;;12.90;9.50;;;6.00;99.90;;;;;;4954580;28;20214;-28
2023/12/08 11:05:37;;;;;;;12.87;9.60;;;6.00;99.90;;;;;;4955997;28;21454;-28
2023/12/08 11:08:05;;;;;;;13.20;9.97;;;6.00;99.90;;;;;;4949958;28;20545;-28
2023/12/08 11:10:37;;;;;;;13.27;9.30;;;6.10;99.90;;;;;;4956591;28;20485;-28
2023/12/08 11:13:26;;;;;;;11.17;9.10;;;6.00;99.90;;;;;;4956635;28;21243;-28
2023/12/08 11:16:05;;;;;;;11.00;8.83;;;6.00;99.90;;;;;;4955232;28;20419;-28
2023/12/08 11:18:37;;;;;;;13.27;10.30;;;6.00;99.90;;;;;;4956503;28;20992;-28
2023/12/08 11:21:09;;;;;;;13.60;10.70;;;6.00;99.80;;;;;;4957753;28;20430;-28
2023/12/08 11:23:41;;;;;;;12.23;9.35;;;6.10;99.90;;;;;;4942706;28;20442;-28
2023/12/08 11:26:28;;;;;;;13.30;9.47;;;6.10;99.90;;;;;;4956316;28;20322;-28
2023/12/08 11:29:19;;;;;;;11.57;9.20;;;6.00;99.90;;;;;;4956772;28;20541;-28
2023/12/08 11:31:56;;;;;;;12.10;9.23;;;6.00;99.90;;;;;;4955789;28;20444;-28
2023/12/08 11:34:33;;;;;;;13.60;10.13;;;6.00;99.90;;;;;;4954633;28;20655;-28
2023/12/08 11:37:01;;;;;;;13.98;10.68;;;6.00;99.90;;;;;;4956136;28;20505;-27
2023/12/08 11:39:44;;;;;;;12.03;9.50;;;6.10;99.90;;;;;;4950500;28;20247;-28
2023/12/08 11:42:13;;;;;;;10.70;9.20;;;6.10;99.90;;;;;;4955346;28;20988;-28
2023/12/08 11:44:44;;;;;;;13.53;9.80;;;6.10;99.90;;;;;;4956501;28;20519;-28
2023/12/08 11:47:14;;;;;;;13.93;9.93;;;6.10;99.90;;;;;;4957390;28;20443;-28
2023/12/08 11:49:45;;;;;;;14.18;9.73;;;6.10;99.90;;;;;;4955247;28;20481;-28
2023/12/08 11:52:28;;;;;;;14.35;10.50;;;6.10;99.90;;;;;;4945982;28;20631;-28
2023/12/08 11:55:06;;;;;;;16.27;10.87;;;6.10;99.90;;;;;;4951429;28;20210;-28
2023/12/08 12:01:02;;;;;;;14.53;10.60;;;6.10;99.90;;;;;;4960451;28;20427;-28
2023/12/08 12:03:30;;;;;;;13.70;10.80;;;6.10;99.90;;;;;;4962637;28;20799;-28
2023/12/08 12:05:56;;;;;;;13.98;10.45;;;6.10;99.90;;;;;;4959122;28;20228;-28
2023/12/08 12:08:25;;;;;;;13.23;10.77;;;6.10;99.90;;;;;;4960351;28;20186;-29
2023/12/08 12:10:55;;;;;;;12.63;10.10;;;6.10;99.90;;;;;;4959362;28;20481;-29
2023/12/08 12:13:26;;;;;;;17.60;10.97;;;6.10;99.90;;;;;;4958464;28;20451;-28
2023/12/08 12:15:55;;;;;;;14.17;10.10;;;6.20;99.90;;;;;;4941460;28;20438;-28
2023/12/08 12:18:30;;;;;;;14.20;10.75;;;6.20;99.90;;;;;;4957939;28;20890;-28
2023/12/08 12:20:58;;;;;;;13.73;9.60;;;6.20;99.90;;;;;;4961263;28;20199;-28
2023/12/08 12:23:28;;;;;;;14.30;9.70;;;6.20;99.90;;;;;;4949180;28;20462;-28
2023/12/08 12:25:55;;;;;;;18.70;10.53;;;6.20;99.90;;;;;;4958438;28;20473;-29
2023/12/08 12:28:21;;;;;;;16.10;11.87;;;6.20;99.90;;;;;;4956511;28;20430;-28
2023/12/08 12:30:48;;;;;;;12.97;10.00;;;6.20;99.90;;;;;;4955330;28;20481;-28
2023/12/08 12:33:19;;;;;;;14.20;10.37;;;6.20;99.90;;;;;;4963384;28;21183;-28
2023/12/08 12:35:45;;;;;;;14.03;10.77;;;6.20;99.90;;;;;;4962927;28;20481;-28
2023/12/08 12:38:18;;;;;;;14.40;10.50;;;6.20;99.90;;;;;;4959685;28;20455;-28
2023/12/08 12:40:45;;;;;;;17.83;11.00;;;6.20;99.90;;;;;;4962327;28;20453;-29
2023/12/08 12:43:16;;;;;;;13.30;10.17;;;6.20;99.90;;;;;;4941561;28;20512;-29
2023/12/08 12:45:42;;;;;;;15.55;10.88;;;6.20;99.90;;;;;;4945946;28;20439;-29
2023/12/08 12:48:09;;;;;;;17.97;10.60;;;6.20;99.90;;;;;;4943363;28;20200;-29
2023/12/08 12:50:49;;;;;;;12.97;10.10;;;6.20;99.90;;;;;;4958918;28;21155;-29
2023/12/08 12:53:15;;;;;;;13.67;10.50;;;6.20;99.90;;;;;;4954462;28;20434;-29
2023/12/08 12:55:42;;;;;;;13.43;10.37;;;6.20;99.90;;;;;;4957272;28;20485;-29
2023/12/08 12:58:20;;;;;;;16.43;10.90;;;6.20;99.90;;;;;;4953177;28;20902;-29